Time;durP1;ratioP1;P1;durP2;ratioP2;P2;SDS_P1;SDS_P2;PMS_P1;PMS_P2;Temp;Humidity;BMP_temperature;BMP_pressure;BME280_temperature;BME280_humidity;BME280_pressure;Samples;Min_cycle;Max_cycle;Signal;HPM_P1;HPM_P2
2021/08/08 00:01:00;;;;;;;11.83;9.63;;;;;;;17.06;76.58;99593.07;1710331;83;25707;-80
2021/08/08 00:03:28;;;;;;;10.98;9.83;;;;;;;17.05;76.47;99595.58;1710349;83;25679;-81
2021/08/08 00:05:54;;;;;;;11.15;10.00;;;;;;;17.03;76.58;99592.44;1710527;83;25734;-80
2021/08/08 00:08:24;;;;;;;10.28;9.25;;;;;;;17.01;76.64;99578.37;1710446;83;26312;-79
2021/08/08 00:10:51;;;;;;;10.85;9.60;;;;;;;16.97;76.73;99575.59;1710546;83;27413;-79
2021/08/08 00:13:17;;;;;;;11.43;9.30;;;;;;;16.94;76.69;99578.25;1710501;83;26341;-79
2021/08/08 00:15:44;;;;;;;10.82;9.53;;;;;;;16.93;76.81;99579.42;1710749;83;25738;-79
2021/08/08 00:18:11;;;;;;;10.10;9.20;;;;;;;16.89;76.90;99578.01;1710485;83;25851;-80
2021/08/08 00:20:37;;;;;;;11.90;9.38;;;;;;;16.89;76.96;99572.55;1710491;83;25657;-78
2021/08/08 00:23:05;;;;;;;10.75;9.18;;;;;;;16.90;76.96;99574.69;1685626;83;27021;-79
2021/08/08 00:25:32;;;;;;;11.68;9.10;;;;;;;16.88;76.94;99566.86;1710316;83;25788;-79
2021/08/08 00:27:58;;;;;;;10.05;8.83;;;;;;;16.87;76.99;99565.86;1710583;83;25669;-79
2021/08/08 00:30:25;;;;;;;10.63;8.93;;;;;;;16.86;77.00;99567.81;1710095;83;25868;-78
2021/08/08 00:32:51;;;;;;;12.00;8.93;;;;;;;16.84;76.92;99567.41;1710642;83;25722;-82
2021/08/08 00:35:19;;;;;;;10.82;8.88;;;;;;;16.83;77.10;99569.10;1709919;83;27422;-80
2021/08/08 00:37:48;;;;;;;9.40;8.40;;;;;;;16.82;77.21;99572.39;1710325;83;26328;-80
2021/08/08 00:40:18;;;;;;;11.78;9.13;;;;;;;16.81;77.23;99565.38;1710764;83;25735;-79
2021/08/08 00:42:48;;;;;;;9.70;8.73;;;;;;;16.81;77.35;99563.42;1710388;83;26321;-81
2021/08/08 00:45:17;;;;;;;10.82;8.65;;;;;;;16.81;77.35;99563.42;1710459;83;25810;-79
2021/08/08 00:47:45;;;;;;;9.50;8.60;;;;;;;16.81;77.36;99549.77;1710617;83;27318;-78
2021/08/08 00:50:13;;;;;;;10.43;8.83;;;;;;;16.82;77.44;99543.72;1710406;83;25777;-80
2021/08/08 00:52:41;;;;;;;10.00;9.00;;;;;;;16.81;77.57;99536.11;1710438;83;25797;-79
2021/08/08 00:55:09;;;;;;;10.53;8.68;;;;;;;16.82;77.51;99540.98;1710372;83;26236;-80
2021/08/08 00:57:35;;;;;;;12.60;9.10;;;;;;;16.83;77.58;99529.50;1710409;83;25798;-81
2021/08/08 01:00:08;;;;;;;10.05;9.05;;;;;;;16.81;77.68;99525.19;1710357;83;27886;-80
2021/08/08 01:02:40;;;;;;;12.33;9.40;;;;;;;16.82;77.69;99524.60;1687334;83;25794;-79
2021/08/08 01:05:10;;;;;;;9.23;8.33;;;;;;;16.84;77.80;99517.41;1709999;83;25781;-78
2021/08/08 01:07:44;;;;;;;9.55;8.55;;;;;;;16.86;77.82;99521.38;1707986;83;25642;-79
2021/08/08 01:10:12;;;;;;;10.32;8.78;;;;;;;16.88;77.96;99524.53;1707324;83;25450;-80
2021/08/08 01:12:40;;;;;;;11.40;8.60;;;;;;;16.90;78.05;99525.52;1706136;84;27447;-81
2021/08/08 01:15:08;;;;;;;11.00;8.15;;;;;;;16.94;78.06;99528.52;1705896;84;25815;-79
2021/08/08 01:17:41;;;;;;;10.45;8.78;;;;;;;16.97;78.08;99529.71;1705899;84;25753;-80
2021/08/08 01:20:11;;;;;;;12.73;8.65;;;;;;;17.00;78.11;99526.24;1705813;83;25807;-80
2021/08/08 01:22:51;;;;;;;9.53;8.18;;;;;;;17.04;78.20;99532.53;1705854;84;25802;-80
2021/08/08 01:25:21;;;;;;;8.70;7.80;;;;;;;17.05;78.32;99525.91;1705883;83;27318;-79
2021/08/08 01:27:48;;;;;;;8.25;7.45;;;;;;;17.08;78.16;99523.03;1705799;83;25734;-80
2021/08/08 01:30:15;;;;;;;9.38;8.33;;;;;;;17.11;78.27;99518.17;1705873;83;25647;-80
2021/08/08 01:32:43;;;;;;;9.20;8.33;;;;;;;17.12;78.18;99521.90;1705755;84;25662;-79
2021/08/08 01:35:10;;;;;;;8.85;7.90;;;;;;;17.14;78.16;99516.06;1684246;84;26397;-79
2021/08/08 01:37:37;;;;;;;10.48;8.50;;;;;;;17.16;78.28;99506.91;1705862;84;27966;-79
2021/08/08 01:40:24;;;;;;;10.48;7.97;;;;;;;17.17;78.12;99506.54;1683952;84;26601;-78
2021/08/08 01:42:54;;;;;;;8.80;7.87;;;;;;;17.18;78.16;99502.66;1704061;83;25718;-77
2021/08/08 01:45:22;;;;;;;10.30;7.92;;;;;;;17.20;78.07;99501.48;1684154;84;25726;-78
2021/08/08 01:47:55;;;;;;;10.08;7.83;;;;;;;17.22;78.03;99492.36;1705825;84;25711;-78
2021/08/08 01:50:22;;;;;;;9.33;7.87;;;;;;;17.24;78.21;99491.40;1705965;84;27413;-79
2021/08/08 01:52:50;;;;;;;8.10;7.40;;;;;;;17.25;78.09;99488.89;1705826;83;25834;-78
2021/08/08 01:55:17;;;;;;;10.48;8.03;;;;;;;17.25;78.06;99487.52;1705561;83;26014;-78
2021/08/08 01:57:44;;;;;;;10.08;7.58;;;;;;;17.26;78.12;99487.12;1705791;84;25766;-78
2021/08/08 02:00:12;;;;;;;9.75;7.60;;;;;;;17.28;78.10;99490.84;1705800;83;26369;-78
2021/08/08 02:02:55;;;;;;;9.38;7.47;;;;;;;17.28;78.23;99487.55;1673187;84;27863;-79
2021/08/08 02:05:24;;;;;;;12.40;7.83;;;;;;;17.29;78.19;99482.87;1707127;83;25805;-78
2021/08/08 02:07:51;;;;;;;8.40;7.50;;;;;;;17.31;78.19;99483.27;1710532;83;25653;-78
2021/08/08 02:10:18;;;;;;;9.65;7.08;;;;;;;17.30;78.19;99478.98;1710405;83;25705;-80
2021/08/08 02:12:45;;;;;;;9.68;8.28;;;;;;;17.29;78.21;99469.98;1710526;83;25768;-80
2021/08/08 02:15:13;;;;;;;8.08;7.28;;;;;;;17.29;78.36;99476.81;1710621;83;27495;-80
2021/08/08 02:17:41;;;;;;;10.18;7.87;;;;;;;17.31;78.30;99470.39;1710452;83;26283;-80
2021/08/08 02:20:11;;;;;;;11.20;7.87;;;;;;;17.32;78.42;99462.41;1710642;83;25817;-81
2021/08/08 02:22:38;;;;;;;8.95;7.55;;;;;;;17.34;78.52;99460.08;1659192;83;25767;-80
2021/08/08 02:25:06;;;;;;;10.70;7.47;;;;;;;17.35;78.61;99464.39;1710518;83;25709;-81
2021/08/08 02:27:32;;;;;;;10.18;7.90;;;;;;;17.36;78.61;99459.11;1706312;83;27509;-81
2021/08/08 02:29:59;;;;;;;9.65;7.22;;;;;;;17.39;78.57;99448.61;1710853;83;25872;-80
2021/08/08 02:32:25;;;;;;;7.85;7.05;;;;;;;17.41;78.66;99448.43;1710587;83;25746;-82
2021/08/08 02:34:51;;;;;;;7.92;7.03;;;;;;;17.44;78.75;99442.81;1710580;83;25794;-81
2021/08/08 02:37:18;;;;;;;8.73;7.55;;;;;;;17.45;78.76;99436.16;1710554;83;25759;-78
2021/08/08 02:39:45;;;;;;;7.72;6.90;;;;;;;17.49;78.80;99426.84;1710611;83;27251;-78
2021/08/08 02:42:11;;;;;;;8.55;6.62;;;;;;;17.51;78.76;99439.55;1710382;83;25765;-78
2021/08/08 02:44:38;;;;;;;7.95;7.15;;;;;;;17.53;78.79;99429.02;1710468;83;25774;-78
2021/08/08 02:47:04;;;;;;;10.95;7.25;;;;;;;17.55;78.66;99425.91;1710481;83;26383;-82
2021/08/08 02:49:31;;;;;;;8.45;7.35;;;;;;;17.58;78.66;99435.31;1710364;83;26012;-79
2021/08/08 02:51:57;;;;;;;7.58;6.87;;;;;;;17.57;78.71;99431.80;1710480;83;27420;-78
2021/08/08 02:54:24;;;;;;;8.45;7.53;;;;;;;17.58;78.63;99438.05;1710458;83;25709;-78
2021/08/08 02:56:50;;;;;;;10.55;6.67;;;;;;;17.59;78.69;99435.50;1710505;83;25714;-79
2021/08/08 02:59:16;;;;;;;8.80;7.25;;;;;;;17.58;78.68;99429.84;1710435;83;25654;-79
2021/08/08 03:01:42;;;;;;;8.28;7.40;;;;;;;17.58;78.87;99429.84;1710520;83;25719;-79
2021/08/08 03:04:09;;;;;;;8.63;7.83;;;;;;;17.57;78.67;99419.50;1710434;83;27905;-77
2021/08/08 03:06:36;;;;;;;8.18;7.37;;;;;;;17.58;78.68;99423.02;1710412;83;25682;-79
2021/08/08 03:09:02;;;;;;;9.63;8.10;;;;;;;17.58;78.66;99421.05;1710543;83;26391;-78
2021/08/08 03:11:28;;;;;;;10.63;7.58;;;;;;;17.57;78.73;99415.40;1710540;83;25798;-78
2021/08/08 03:13:55;;;;;;;8.48;7.67;;;;;;;17.56;78.79;99413.81;1710580;83;25738;-78
2021/08/08 03:16:21;;;;;;;9.28;7.90;;;;;;;17.55;78.80;99408.94;1710419;83;28087;-79
2021/08/08 03:18:47;;;;;;;8.93;7.55;;;;;;;17.54;78.95;99416.92;1710308;83;25795;-79
2021/08/08 03:21:13;;;;;;;9.65;8.13;;;;;;;17.53;78.85;99411.24;1710463;83;25803;-78
2021/08/08 03:23:39;;;;;;;8.95;8.05;;;;;;;17.52;78.99;99406.95;1710361;83;26339;-78
2021/08/08 03:26:06;;;;;;;9.63;7.70;;;;;;;17.53;78.99;99413.20;1684788;83;25764;-79
2021/08/08 03:28:32;;;;;;;11.22;7.72;;;;;;;17.52;78.98;99415.72;1710462;83;27411;-78
2021/08/08 03:30:59;;;;;;;8.00;7.20;;;;;;;17.51;79.03;99413.57;1710467;83;25717;-77
2021/08/08 03:33:25;;;;;;;8.63;7.78;;;;;;;17.52;79.13;99412.98;1710557;83;25797;-81
2021/08/08 03:35:51;;;;;;;8.63;7.25;;;;;;;17.51;79.32;99406.73;1710446;83;25973;-80
2021/08/08 03:38:18;;;;;;;8.85;7.90;;;;;;;17.52;79.37;99408.33;1687803;83;25793;-79
2021/08/08 03:40:44;;;;;;;8.43;7.58;;;;;;;17.52;79.72;99412.98;1710645;83;28398;-80
2021/08/08 03:43:10;;;;;;;9.05;8.00;;;;;;;17.53;79.51;99408.51;1661621;83;25816;-81
2021/08/08 03:45:37;;;;;;;10.65;7.25;;;;;;;17.57;79.62;99400.92;1710553;83;25603;-80
2021/08/08 03:48:04;;;;;;;9.23;7.92;;;;;;;17.59;79.84;99399.40;1710396;83;25790;-80
2021/08/08 03:50:30;;;;;;;8.53;7.70;;;;;;;17.64;79.79;99399.61;1700452;83;25695;-80
2021/08/08 03:52:56;;;;;;;10.50;7.35;;;;;;;17.68;79.72;99393.61;1710501;83;27495;-80
2021/08/08 03:55:23;;;;;;;7.58;6.87;;;;;;;17.72;79.72;99399.87;1710378;83;25761;-78
2021/08/08 03:57:50;;;;;;;9.18;8.35;;;;;;;17.77;79.71;99390.55;1710501;83;25800;-78
2021/08/08 04:00:17;;;;;;;10.45;7.05;;;;;;;17.80;79.66;99389.79;1710466;83;26415;-81
2021/08/08 04:02:44;;;;;;;7.87;7.05;;;;;;;17.83;79.56;99390.41;1710427;83;25736;-81
2021/08/08 04:05:10;;;;;;;7.83;6.90;;;;;;;17.85;79.69;99389.44;1710443;83;28127;-81
2021/08/08 04:07:37;;;;;;;13.48;7.47;;;;;;;17.89;79.59;99386.16;1710425;83;25750;-81
2021/08/08 04:10:04;;;;;;;10.23;6.67;;;;;;;17.90;79.55;99377.58;1710478;83;25771;-81
2021/08/08 04:12:31;;;;;;;10.20;7.72;;;;;;;17.93;79.55;99377.41;1710474;83;25718;-82
2021/08/08 04:14:57;;;;;;;7.78;6.90;;;;;;;17.96;79.51;99367.64;1682466;83;25692;-81
2021/08/08 04:17:23;;;;;;;7.08;6.25;;;;;;;17.98;79.46;99372.14;1703392;83;27335;-81
2021/08/08 04:19:50;;;;;;;9.35;6.97;;;;;;;18.01;79.40;99380.96;1705698;83;25643;-81
2021/08/08 04:22:16;;;;;;;10.03;7.35;;;;;;;18.02;79.43;99386.05;1710448;83;25712;-82
2021/08/08 04:24:45;;;;;;;9.25;7.08;;;;;;;18.02;79.39;99403.84;1710373;83;26310;-82
2021/08/08 04:27:11;;;;;;;9.75;6.87;;;;;;;18.02;79.43;99413.42;1710526;83;25853;-82
2021/08/08 04:29:37;;;;;;;8.65;6.40;;;;;;;18.02;79.59;99428.47;1710525;83;27392;-88
2021/08/08 04:32:04;;;;;;;8.75;6.97;;;;;;;18.02;80.02;99430.42;1710378;83;25717;-87
2021/08/08 04:34:31;;;;;;;9.43;6.28;;;;;;;17.98;80.48;99448.19;1705703;84;25675;-88
2021/08/08 04:37:00;;;;;;;11.03;6.65;;;;;;;17.91;80.61;99439.34;1705393;83;26222;-87
2021/08/08 04:39:27;;;;;;;7.17;6.40;;;;;;;17.84;81.05;99447.47;1706227;83;25797;-88
2021/08/08 04:41:54;;;;;;;8.60;6.55;;;;;;;17.78;81.58;99448.19;1699750;83;27403;-86
2021/08/08 04:44:21;;;;;;;7.20;6.55;;;;;;;17.71;81.90;99448.33;1710388;83;25791;-82
2021/08/08 04:46:48;;;;;;;10.50;6.60;;;;;;;17.66;82.81;99456.09;1710960;83;25664;-80
2021/08/08 04:49:15;;;;;;;9.25;6.30;;;;;;;17.59;83.39;99457.38;1710478;83;25718;-78
2021/08/08 04:51:42;;;;;;;8.68;6.75;;;;;;;17.51;84.07;99445.02;1710442;83;25888;-79
2021/08/08 04:54:08;;;;;;;8.15;6.42;;;;;;;17.47;83.98;99427.80;1710327;83;28137;-80
2021/08/08 04:56:35;;;;;;;13.58;7.10;;;;;;;17.45;84.83;99423.86;1710336;83;25809;-78
2021/08/08 04:59:02;;;;;;;9.98;7.08;;;;;;;17.40;84.85;99416.00;1688484;83;25690;-80
2021/08/08 05:01:29;;;;;;;8.05;6.62;;;;;;;17.37;84.62;99405.25;1710321;83;26249;-80
2021/08/08 05:03:57;;;;;;;9.63;7.90;;;;;;;17.35;84.83;99389.23;1710433;83;25658;-80
2021/08/08 05:06:23;;;;;;;10.00;7.17;;;;;;;17.34;85.05;99386.88;1710978;82;27444;-80
2021/08/08 05:08:50;;;;;;;10.80;7.95;;;;;;;17.33;85.33;99392.13;1711347;83;25695;-80
2021/08/08 05:11:18;;;;;;;9.90;7.90;;;;;;;17.30;85.37;99377.28;1711122;83;26356;-81
2021/08/08 05:13:46;;;;;;;9.90;7.37;;;;;;;17.32;85.58;99389.98;1710859;83;25889;-81
2021/08/08 05:16:14;;;;;;;10.58;7.58;;;;;;;17.32;85.68;99389.20;1710506;83;25735;-80
2021/08/08 05:18:40;;;;;;;9.55;7.75;;;;;;;17.32;86.06;99393.30;1710135;83;27267;-79
2021/08/08 05:21:07;;;;;;;10.15;7.28;;;;;;;17.29;85.81;99390.73;1710393;83;25788;-80
2021/08/08 05:23:35;;;;;;;14.43;7.20;;;;;;;17.30;86.01;99388.80;1710273;83;26389;-80
2021/08/08 05:26:04;;;;;;;8.95;7.40;;;;;;;17.31;86.06;99397.19;1710482;83;26322;-79
2021/08/08 05:28:30;;;;;;;10.98;7.30;;;;;;;17.30;86.25;99405.20;1710543;83;25768;-80
2021/08/08 05:30:57;;;;;;;9.83;7.33;;;;;;;17.32;86.36;99418.67;1710113;83;28565;-80
2021/08/08 05:33:23;;;;;;;9.65;7.37;;;;;;;17.31;86.64;99420.41;1686015;83;25809;-80
2021/08/08 05:35:51;;;;;;;14.30;7.40;;;;;;;17.31;86.65;99419.83;1710417;83;25714;-80
2021/08/08 05:38:18;;;;;;;9.05;7.17;;;;;;;17.30;86.63;99431.16;1710247;83;25773;-80
2021/08/08 05:40:44;;;;;;;8.75;7.37;;;;;;;17.32;86.64;99430.20;1710228;83;25836;-79
2021/08/08 05:43:11;;;;;;;8.65;7.72;;;;;;;17.33;86.72;99435.85;1710360;83;27393;-79
2021/08/08 05:45:37;;;;;;;9.55;8.55;;;;;;;17.36;86.84;99447.41;1710382;83;26445;-79
2021/08/08 05:48:04;;;;;;;14.55;7.95;;;;;;;17.41;87.11;99449.02;1710626;83;25652;-79
2021/08/08 05:50:30;;;;;;;14.15;9.35;;;;;;;17.43;87.14;99441.22;1710073;83;25726;-79
2021/08/08 05:52:56;;;;;;;10.75;9.08;;;;;;;17.50;87.34;99445.39;1710375;83;25816;-79
2021/08/08 05:55:23;;;;;;;9.90;8.90;;;;;;;17.54;87.41;99442.13;1710538;83;27078;-79
2021/08/08 05:57:49;;;;;;;8.68;7.87;;;;;;;17.59;87.47;99454.64;1710452;83;25773;-79
2021/08/08 06:00:16;;;;;;;11.38;9.30;;;;;;;17.65;87.54;99457.25;1710560;83;25777;-78
2021/08/08 06:02:42;;;;;;;9.15;8.20;;;;;;;17.67;87.43;99461.19;1710435;83;26310;-78
2021/08/08 06:05:10;;;;;;;10.13;8.00;;;;;;;17.71;87.79;99451.65;1710258;83;25775;-78
2021/08/08 06:07:36;;;;;;;11.03;7.87;;;;;;;17.78;87.61;99457.77;1708563;83;28559;-78
2021/08/08 06:10:04;;;;;;;9.63;8.25;;;;;;;17.81;87.42;99466.00;1685249;84;26390;-78
2021/08/08 06:12:30;;;;;;;12.03;8.38;;;;;;;17.86;87.54;99466.20;1710089;83;25678;-78
2021/08/08 06:14:56;;;;;;;9.45;8.45;;;;;;;17.91;87.78;99466.70;1710623;83;25855;-78
2021/08/08 06:17:23;;;;;;;9.15;8.18;;;;;;;17.98;87.48;99473.38;1710184;83;25772;-78
2021/08/08 06:19:49;;;;;;;9.80;7.78;;;;;;;18.03;87.62;99468.91;1710608;83;27385;-78
2021/08/08 06:22:15;;;;;;;12.50;8.10;;;;;;;18.10;87.86;99463.52;1686824;83;25772;-78
2021/08/08 06:24:42;;;;;;;10.60;7.25;;;;;;;18.13;87.59;99467.43;1686934;83;25872;-78
2021/08/08 06:27:08;;;;;;;9.58;8.45;;;;;;;18.18;88.00;99469.22;1710659;83;25710;-78
2021/08/08 06:29:36;;;;;;;8.68;7.40;;;;;;;18.24;88.32;99469.08;1709830;83;25785;-78
2021/08/08 06:32:04;;;;;;;10.00;7.80;;;;;;;18.32;87.86;99465.02;1709808;83;27338;-78
2021/08/08 06:34:31;;;;;;;9.35;8.05;;;;;;;18.38;88.09;99462.13;1687562;83;25827;-78
2021/08/08 06:36:57;;;;;;;9.03;7.50;;;;;;;18.44;87.84;99467.45;1711629;83;25385;-78
2021/08/08 06:39:23;;;;;;;9.03;6.72;;;;;;;18.52;87.55;99471.78;1710656;83;25690;-78
2021/08/08 06:41:51;;;;;;;7.97;7.17;;;;;;;18.57;87.66;99478.86;1710457;83;25717;-77
2021/08/08 06:44:17;;;;;;;9.98;6.80;;;;;;;18.63;87.66;99482.81;1710632;83;28109;-78
2021/08/08 06:46:44;;;;;;;7.62;6.75;;;;;;;18.76;87.81;99483.26;1710318;83;25774;-78
2021/08/08 06:49:10;;;;;;;9.20;6.35;;;;;;;18.84;87.72;99488.41;1709988;83;25895;-78
2021/08/08 06:51:37;;;;;;;13.68;7.08;;;;;;;18.89;87.21;99491.97;1710550;83;25770;-78
2021/08/08 06:54:04;;;;;;;7.17;6.47;;;;;;;18.96;87.15;99496.88;1710511;83;25790;-77
2021/08/08 06:56:32;;;;;;;7.12;6.42;;;;;;;19.08;87.01;99493.02;1710509;83;27372;-77
2021/08/08 06:58:59;;;;;;;6.62;5.90;;;;;;;19.20;86.64;99490.52;1709984;83;25854;-78
2021/08/08 07:01:25;;;;;;;8.15;6.47;;;;;;;19.26;86.26;99494.46;1710446;83;25733;-78
2021/08/08 07:03:51;;;;;;;9.58;5.67;;;;;;;19.43;86.49;99489.39;1710721;83;25829;-78
2021/08/08 07:06:19;;;;;;;7.42;6.28;;;;;;;19.72;87.12;99502.00;1698885;84;25846;-79
2021/08/08 07:08:46;;;;;;;9.75;6.20;;;;;;;19.99;87.21;99500.86;1707720;83;27333;-79
2021/08/08 07:11:12;;;;;;;7.22;5.90;;;;;;;20.32;87.35;99496.93;1709328;83;25727;-79
2021/08/08 07:13:40;;;;;;;6.10;5.40;;;;;;;20.59;86.71;99505.52;1710507;83;25909;-79
2021/08/08 07:16:09;;;;;;;10.58;5.40;;;;;;;20.89;85.57;99510.56;1710606;83;25724;-78
2021/08/08 07:18:35;;;;;;;5.80;5.20;;;;;;;21.07;84.21;99520.11;1710286;83;25716;-78
2021/08/08 07:21:02;;;;;;;7.87;5.10;;;;;;;21.18;82.66;99524.77;1710727;83;27306;-80
2021/08/08 07:23:28;;;;;;;5.28;4.70;;;;;;;21.30;81.37;99529.05;1710634;83;25679;-79
2021/08/08 07:25:55;;;;;;;5.67;4.70;;;;;;;21.55;82.34;99528.34;1710106;83;26423;-80
2021/08/08 07:28:21;;;;;;;8.08;4.75;;;;;;;21.83;81.21;99543.13;1709927;83;25732;-79
2021/08/08 07:30:47;;;;;;;5.92;4.67;;;;;;;21.99;80.57;99537.11;1710677;83;25726;-80
2021/08/08 07:33:14;;;;;;;7.03;4.60;;;;;;;22.14;79.65;99539.16;1710575;83;28175;-80
2021/08/08 07:35:40;;;;;;;6.03;4.47;;;;;;;22.11;78.77;99535.23;1710443;83;25818;-79
2021/08/08 07:38:08;;;;;;;5.05;4.55;;;;;;;21.96;77.96;99547.55;1710676;83;25738;-80
2021/08/08 07:40:35;;;;;;;8.53;4.67;;;;;;;21.82;77.42;99555.31;1710556;83;25699;-80
2021/08/08 07:43:01;;;;;;;5.00;4.60;;;;;;;21.62;77.38;99559.16;1709737;83;25709;-79
2021/08/08 07:45:28;;;;;;;5.53;5.03;;;;;;;21.49;77.73;99574.56;1710569;83;27430;-81
2021/08/08 07:47:54;;;;;;;7.60;6.50;;;;;;;21.35;77.84;99587.77;1688466;83;25881;-81
2021/08/08 07:50:20;;;;;;;10.53;8.55;;;;;;;21.20;77.56;99591.17;1710497;83;25733;-80
2021/08/08 07:52:46;;;;;;;11.05;9.55;;;;;;;21.04;77.24;99604.77;1710578;83;25700;-79
2021/08/08 07:55:13;;;;;;;10.18;9.18;;;;;;;20.89;77.38;99612.27;1710596;83;26508;-80
2021/08/08 07:57:39;;;;;;;10.75;9.75;;;;;;;20.79;77.26;99609.52;1710521;83;27401;-81
2021/08/08 08:00:08;;;;;;;11.28;9.53;;;;;;;20.66;77.53;99608.55;1710374;83;25783;-81
2021/08/08 08:02:34;;;;;;;11.30;10.13;;;;;;;20.54;77.63;99617.17;1710481;83;25733;-79
2021/08/08 08:05:01;;;;;;;10.50;9.43;;;;;;;20.43;77.93;99615.81;1710514;83;25778;-80
2021/08/08 08:07:27;;;;;;;13.60;10.48;;;;;;;20.34;78.07;99623.03;1710484;83;25768;-81
2021/08/08 08:09:53;;;;;;;11.75;10.45;;;;;;;20.28;78.25;99634.23;1710506;83;27330;-80
2021/08/08 08:12:20;;;;;;;11.85;10.65;;;;;;;20.22;78.41;99630.29;1710444;83;25727;-79
2021/08/08 08:14:46;;;;;;;11.22;10.15;;;;;;;20.14;78.43;99628.14;1710528;83;25753;-82
2021/08/08 08:17:12;;;;;;;12.07;11.03;;;;;;;20.08;78.88;99642.03;1710513;83;25813;-81
2021/08/08 08:19:38;;;;;;;13.95;10.95;;;;;;;20.01;79.12;99650.27;1710488;83;25761;-80
2021/08/08 08:22:05;;;;;;;12.03;10.88;;;;;;;19.95;79.00;99651.80;1710567;83;27251;-81
2021/08/08 08:24:31;;;;;;;12.10;10.90;;;;;;;19.88;79.21;99642.97;1710356;83;25886;-81
2021/08/08 08:26:57;;;;;;;12.50;11.30;;;;;;;19.83;79.18;99642.56;1710518;83;25695;-81
2021/08/08 08:29:24;;;;;;;13.22;10.98;;;;;;;19.77;79.31;99642.16;1710526;83;25694;-81
2021/08/08 08:31:50;;;;;;;14.25;10.88;;;;;;;19.72;79.44;99656.23;1705093;83;25702;-81
2021/08/08 08:34:16;;;;;;;12.10;10.80;;;;;;;19.70;79.59;99679.93;1710483;83;27490;-81
2021/08/08 08:36:43;;;;;;;12.50;9.98;;;;;;;19.66;79.40;99682.45;1710485;83;25695;-81
2021/08/08 08:39:09;;;;;;;11.60;10.50;;;;;;;19.55;79.49;99687.89;1686371;84;25706;-81
2021/08/08 08:41:37;;;;;;;11.97;10.55;;;;;;;19.51;79.62;99670.63;1709937;83;25688;-81
2021/08/08 08:44:04;;;;;;;12.28;9.55;;;;;;;19.52;79.84;99666.13;1710554;83;25809;-81
2021/08/08 08:46:34;;;;;;;11.00;9.45;;;;;;;19.56;79.94;99662.83;1710192;83;27405;-82
2021/08/08 08:49:01;;;;;;;11.68;9.25;;;;;;;19.58;79.95;99668.71;1710547;83;25687;-81
2021/08/08 08:51:43;;;;;;;8.90;7.65;;;;;;;19.56;79.62;99681.22;1710607;83;25720;-81
2021/08/08 08:54:11;;;;;;;9.13;8.03;;;;;;;19.52;79.00;99681.20;1710534;83;26384;-79
2021/08/08 08:56:38;;;;;;;8.53;7.72;;;;;;;19.48;79.17;99687.27;1710399;83;25749;-80
2021/08/08 08:59:06;;;;;;;10.78;8.05;;;;;;;19.41;79.27;99697.62;1710557;83;27972;-80
2021/08/08 09:01:32;;;;;;;12.00;7.60;;;;;;;19.34;79.61;99701.70;1710397;83;25681;-80
2021/08/08 09:03:58;;;;;;;6.95;6.33;;;;;;;19.26;79.85;99708.86;1710578;83;26422;-79
2021/08/08 09:06:24;;;;;;;5.67;5.17;;;;;;;19.14;79.87;99729.95;1709895;83;25797;-78
2021/08/08 09:08:50;;;;;;;5.45;4.60;;;;;;;19.00;80.30;99733.38;1709192;83;25670;-78
2021/08/08 09:11:17;;;;;;;6.80;5.45;;;;;;;18.89;80.32;99732.49;1710515;83;27323;-79
2021/08/08 09:13:55;;;;;;;5.72;5.03;;;;;;;18.81;80.66;99733.00;1710009;83;25734;-80
2021/08/08 09:16:26;;;;;;;4.33;4.00;;;;;;;18.78;81.10;99733.75;1710589;83;25671;-80
2021/08/08 09:18:56;;;;;;;5.33;4.03;;;;;;;18.76;81.30;99764.85;1711112;83;26218;-80
2021/08/08 09:21:24;;;;;;;4.85;4.17;;;;;;;18.74;81.86;99765.01;1710650;83;26354;-80
2021/08/08 09:23:56;;;;;;;4.12;3.83;;;;;;;18.71;81.73;99783.00;1687385;83;27331;-80
2021/08/08 09:26:34;;;;;;;4.65;3.62;;;;;;;18.70;81.94;99782.00;1710773;83;26450;-80
2021/08/08 09:29:16;;;;;;;4.60;3.65;;;;;;;18.70;82.15;99785.52;1707794;83;25637;-80
2021/08/08 09:31:47;;;;;;;3.65;3.15;;;;;;;18.75;82.44;99789.88;1710829;83;25892;-80
2021/08/08 09:34:29;;;;;;;3.35;2.87;;;;;;;18.81;82.38;99796.58;1710787;83;25776;-80
2021/08/08 09:36:59;;;;;;;2.70;2.50;;;;;;;18.83;81.94;99808.77;1710685;83;27335;-79
2021/08/08 09:39:36;;;;;;;2.92;2.72;;;;;;;18.84;81.62;99817.19;1709845;83;25721;-79
2021/08/08 09:42:09;;;;;;;3.20;2.90;;;;;;;18.89;81.97;99824.28;1710703;83;25713;-79
2021/08/08 09:44:37;;;;;;;2.95;2.75;;;;;;;18.93;81.55;99827.83;1709689;83;25789;-80
2021/08/08 09:47:05;;;;;;;2.72;2.50;;;;;;;18.97;81.52;99827.89;1710759;83;25670;-78
2021/08/08 09:49:31;;;;;;;3.65;2.80;;;;;;;19.01;81.47;99831.45;1710521;83;27315;-79
2021/08/08 09:52:01;;;;;;;3.55;2.45;;;;;;;19.06;81.70;99820.14;1710767;83;25733;-80
2021/08/08 09:54:37;;;;;;;2.15;1.95;;;;;;;19.17;81.39;99827.08;1710433;83;25783;-80
2021/08/08 09:57:04;;;;;;;3.02;2.20;;;;;;;19.28;81.20;99836.78;1710508;83;25706;-80
2021/08/08 09:59:31;;;;;;;2.98;2.33;;;;;;;19.39;80.74;99837.63;1710327;83;25726;-80
2021/08/08 10:01:58;;;;;;;3.12;2.40;;;;;;;19.50;80.90;99846.74;1710651;83;27303;-80
2021/08/08 10:04:25;;;;;;;2.72;2.47;;;;;;;19.57;79.75;99856.39;1710388;83;25728;-80
2021/08/08 10:06:54;;;;;;;2.75;1.87;;;;;;;19.63;79.35;99857.41;1710391;83;25736;-80
2021/08/08 10:09:21;;;;;;;2.02;1.82;;;;;;;19.67;78.29;99885.08;1711051;83;25885;-80
2021/08/08 10:11:50;;;;;;;2.25;2.15;;;;;;;19.67;78.51;99877.44;1710865;83;25716;-80
2021/08/08 10:14:17;;;;;;;5.30;2.05;;;;;;;19.76;79.06;99871.84;1711058;83;27403;-80
2021/08/08 10:16:47;;;;;;;4.12;2.15;;;;;;;19.81;78.56;99874.81;1690714;83;25750;-79
2021/08/08 10:19:17;;;;;;;2.15;2.00;;;;;;;19.77;77.82;99873.42;1710837;83;26368;-80
2021/08/08 10:21:45;;;;;;;2.10;1.85;;;;;;;19.80;77.65;99878.72;1710849;83;25725;-81
2021/08/08 10:24:14;;;;;;;2.30;2.15;;;;;;;19.86;77.42;99881.31;1690397;83;25730;-79
2021/08/08 10:26:40;;;;;;;4.35;2.15;;;;;;;19.90;77.05;99884.89;1710831;83;28091;-79
2021/08/08 10:29:07;;;;;;;2.15;1.95;;;;;;;19.94;77.31;99887.06;1710480;83;25734;-79
2021/08/08 10:31:34;;;;;;;2.80;2.35;;;;;;;19.99;76.80;99887.30;1710555;83;25717;-80
2021/08/08 10:34:01;;;;;;;2.92;2.25;;;;;;;19.95;76.68;99901.00;1710496;83;25826;-80
2021/08/08 10:36:30;;;;;;;2.98;2.30;;;;;;;19.90;76.49;99897.80;1710632;83;25791;-79
2021/08/08 10:39:15;;;;;;;3.02;2.70;;;;;;;19.90;76.80;99899.17;1710628;83;27898;-80
2021/08/08 10:41:57;;;;;;;3.22;2.30;;;;;;;19.92;76.87;99904.50;1710536;83;25675;-80
2021/08/08 10:44:26;;;;;;;3.50;2.40;;;;;;;20.05;77.19;99920.06;1710593;83;25792;-80
2021/08/08 10:46:55;;;;;;;3.08;2.77;;;;;;;20.20;77.25;99916.83;1710631;83;26384;-79
2021/08/08 10:49:33;;;;;;;2.50;2.30;;;;;;;20.36;77.32;99919.84;1710577;83;25710;-81
2021/08/08 10:52:02;;;;;;;2.52;2.33;;;;;;;20.65;76.92;99930.41;1710623;83;27481;-81
2021/08/08 10:54:41;;;;;;;;;;;;;;;20.88;76.92;99930.89;1712974;83;25725;-81
2021/08/08 10:57:16;;;;;;;4.42;2.75;;;;;;;21.07;76.53;99931.14;1710185;83;29861;-81
2021/08/08 10:59:46;;;;;;;2.50;2.30;;;;;;;21.30;75.76;99934.16;1709758;83;26207;-80
2021/08/08 11:02:16;;;;;;;;;;;;;;;21.54;75.18;99941.45;1713042;83;26408;-81
2021/08/08 11:04:43;;;;;;;5.35;2.40;;;;;;;21.60;72.34;99946.77;1694866;84;27479;-80
2021/08/08 11:07:10;;;;;;;3.45;2.37;;;;;;;21.60;70.98;99933.80;1682230;84;25710;-79
2021/08/08 11:09:39;;;;;;;2.83;2.27;;;;;;;21.62;71.58;99942.47;1708623;83;25707;-80
2021/08/08 11:12:10;;;;;;;2.20;2.00;;;;;;;21.72;72.13;99935.38;1710536;83;26248;-81
2021/08/08 11:14:48;;;;;;;3.83;3.27;;;;;;;21.86;71.73;99952.47;1710339;83;25814;-81
2021/08/08 11:17:14;;;;;;;2.30;2.10;;;;;;;21.99;71.84;99959.75;1710597;83;27327;-80
2021/08/08 11:19:43;;;;;;;2.87;2.67;;;;;;;22.15;71.20;99960.70;1710424;83;25690;-80
2021/08/08 11:22:14;;;;;;;2.98;2.25;;;;;;;22.32;71.51;99971.52;1710687;83;25776;-80
2021/08/08 11:24:43;;;;;;;3.50;2.33;;;;;;;22.34;69.76;99978.22;1700523;83;25800;-80
2021/08/08 11:27:12;;;;;;;3.65;2.37;;;;;;;22.40;69.17;99975.06;1710712;83;25661;-81
2021/08/08 11:29:39;;;;;;;7.67;2.17;;;;;;;22.51;69.15;99973.86;1710620;83;27950;-80
2021/08/08 11:32:08;;;;;;;3.00;1.72;;;;;;;22.56;69.69;99976.80;1710549;83;25651;-80
2021/08/08 11:34:34;;;;;;;;;;;;;;;22.53;67.89;99982.50;1713829;83;25623;-81